CheckWX is a tool to help pilots better visualize weather data.  It is not intended as a substitute for an official pre-flight weather briefing.

11:59:48 UTC

3N8 METAR
Mahnomen County Airport
Mahnomen, Minnesota, USA
Current

25 mins ago

K3N8 251135Z AUTO 11004KT 10SM CLR M06/M12 A3037 RMK AO2 T10611125
Observed
Mar-25 @ 11:35 UTC
Wind
  • 110° at 4 KTS
Visibility
10 SM
Flight Rules
VFR
Cloud Levels
  • Clear skies
Temperature
-6°C / 21°F
Dewpoint
-13°C / 9°F
Humidity
58%
Altimeter
30.37" Hg
Pressure
1028.42 hPa
Previous

45 mins ago

K3N8 251115Z AUTO 11003KT 10SM CLR M07/M12 A3037 RMK AO2 T10671119
Observed
Mar-25 @ 11:15 UTC
Wind
  • 110° at 3 KTS
Visibility
10 SM
Flight Rules
VFR
Cloud Levels
  • Clear skies
Temperature
-7°C / 19°F
Dewpoint
-12°C / 10°F
Humidity
68%
Altimeter
30.37" Hg
Pressure
1028.42 hPa
Previous

1 hour ago

K3N8 251055Z AUTO 00000KT 10SM CLR M08/M11 A3037 RMK AO2 T10761109
Observed
Mar-25 @ 10:55 UTC
Visibility
10 SM
Flight Rules
VFR
Cloud Levels
  • Clear skies
Temperature
-8°C / 18°F
Dewpoint
-11°C / 12°F
Humidity
79%
Altimeter
30.37" Hg
Pressure
1028.42 hPa